sensor_id;sensor_type;location;lat;lon;timestamp;pressure;altitude;pressure_sealevel;temperature
24714;BMP280;12820;51.580;5.010;2023-07-28T00:03:04;100485.56;;;20.39
24714;BMP280;12820;51.580;5.010;2023-07-28T00:08:07;100489.72;;;20.40
24714;BMP280;12820;51.580;5.010;2023-07-28T00:13:09;100490.66;;;20.39
24714;BMP280;12820;51.580;5.010;2023-07-28T00:18:11;100489.00;;;20.38
24714;BMP280;12820;51.580;5.010;2023-07-28T00:23:13;100494.94;;;20.39
24714;BMP280;12820;51.580;5.010;2023-07-28T00:28:15;100482.25;;;20.37
24714;BMP280;12820;51.580;5.010;2023-07-28T00:33:18;100482.25;;;20.37
24714;BMP280;12820;51.580;5.010;2023-07-28T00:38:20;100481.44;;;20.37
24714;BMP280;12820;51.580;5.010;2023-07-28T00:43:23;100475.50;;;20.36
24714;BMP280;12820;51.580;5.010;2023-07-28T00:48:25;100466.94;;;20.37
24714;BMP280;12820;51.580;5.010;2023-07-28T00:53:29;100467.84;;;20.36
24714;BMP280;12820;51.580;5.010;2023-07-28T00:58:31;100463.63;;;20.35
24714;BMP280;12820;51.580;5.010;2023-07-28T01:03:33;100473.03;;;20.35
24714;BMP280;12820;51.580;5.010;2023-07-28T01:08:43;100479.88;;;20.34
24714;BMP280;12820;51.580;5.010;2023-07-28T01:13:48;100476.53;;;20.34
24714;BMP280;12820;51.580;5.010;2023-07-28T01:18:51;100478.13;;;20.35
24714;BMP280;12820;51.580;5.010;2023-07-28T01:24:13;100485.78;;;20.35
24714;BMP280;12820;51.580;5.010;2023-07-28T01:29:17;100479.88;;;20.34
24714;BMP280;12820;51.580;5.010;2023-07-28T01:34:21;100476.53;;;20.34
24714;BMP280;12820;51.580;5.010;2023-07-28T01:39:23;100482.44;;;20.34
24714;BMP280;12820;51.580;5.010;2023-07-28T01:44:25;100479.88;;;20.34
24714;BMP280;12820;51.580;5.010;2023-07-28T01:49:27;100495.22;;;20.34
24714;BMP280;12820;51.580;5.010;2023-07-28T01:54:29;100496.09;;;20.33
24714;BMP280;12820;51.580;5.010;2023-07-28T01:59:32;100493.56;;;20.33
24714;BMP280;12820;51.580;5.010;2023-07-28T02:04:35;100504.47;;;20.35
24714;BMP280;12820;51.580;5.010;2023-07-28T02:09:38;100497.75;;;20.34
24714;BMP280;12820;51.580;5.010;2023-07-28T02:14:40;100485.91;;;20.33
24714;BMP280;12820;51.580;5.010;2023-07-28T02:19:42;100485.91;;;20.33
24714;BMP280;12820;51.580;5.010;2023-07-28T02:24:45;100486.63;;;20.35
24714;BMP280;12820;51.580;5.010;2023-07-28T02:29:47;100492.66;;;20.34
24714;BMP280;12820;51.580;5.010;2023-07-28T02:34:50;100491.84;;;20.34
24714;BMP280;12820;51.580;5.010;2023-07-28T02:39:52;100485.91;;;20.33
24714;BMP280;12820;51.580;5.010;2023-07-28T02:44:54;100485.91;;;20.33
24714;BMP280;12820;51.580;5.010;2023-07-28T02:49:57;100491.91;;;20.32
24714;BMP280;12820;51.580;5.010;2023-07-28T02:54:59;100493.63;;;20.32
24714;BMP280;12820;51.580;5.010;2023-07-28T03:00:03;100496.19;;;20.32
24714;BMP280;12820;51.580;5.010;2023-07-28T03:05:07;100503.91;;;20.30
24714;BMP280;12820;51.580;5.010;2023-07-28T03:10:37;100503.84;;;20.32
24714;BMP280;12820;51.580;5.010;2023-07-28T03:15:39;100507.28;;;20.31
24714;BMP280;12820;51.580;5.010;2023-07-28T03:20:42;100523.41;;;20.31
24714;BMP280;12820;51.580;5.010;2023-07-28T03:25:44;100515.03;;;20.29
24714;BMP280;12820;51.580;5.010;2023-07-28T03:30:46;100515.88;;;20.30
24714;BMP280;12820;51.580;5.010;2023-07-28T03:35:48;100521.75;;;20.30
24714;BMP280;12820;51.580;5.010;2023-07-28T03:40:53;100532.91;;;20.29
24714;BMP280;12820;51.580;5.010;2023-07-28T03:45:55;100532.97;;;20.28
24714;BMP280;12820;51.580;5.010;2023-07-28T03:50:57;100533.81;;;20.28
24714;BMP280;12820;51.580;5.010;2023-07-28T03:56:00;100533.81;;;20.28
24714;BMP280;12820;51.580;5.010;2023-07-28T04:01:02;100534.63;;;20.29
24714;BMP280;12820;51.580;5.010;2023-07-28T04:06:09;100538.00;;;20.29
24714;BMP280;12820;51.580;5.010;2023-07-28T04:11:11;100538.72;;;20.31
24714;BMP280;12820;51.580;5.010;2023-07-28T04:16:15;100527.66;;;20.32
24714;BMP280;12820;51.580;5.010;2023-07-28T04:21:19;100527.56;;;20.34
24714;BMP280;12820;51.580;5.010;2023-07-28T04:26:22;100527.47;;;20.35
24714;BMP280;12820;51.580;5.010;2023-07-28T04:31:30;100531.66;;;20.36
24714;BMP280;12820;51.580;5.010;2023-07-28T04:36:38;100538.41;;;20.37
24714;BMP280;12820;51.580;5.010;2023-07-28T04:41:40;100537.41;;;20.40
24714;BMP280;12820;51.580;5.010;2023-07-28T04:46:43;100542.34;;;20.43
24714;BMP280;12820;51.580;5.010;2023-07-28T04:51:48;100540.44;;;20.46
24714;BMP280;12820;51.580;5.010;2023-07-28T04:57:13;100543.63;;;20.49
24714;BMP280;12820;51.580;5.010;2023-07-28T05:02:17;100552.03;;;20.51
24714;BMP280;12820;51.580;5.010;2023-07-28T05:07:20;100544.16;;;20.54
24714;BMP280;12820;51.580;5.010;2023-07-28T05:12:22;100543.75;;;20.62
24714;BMP280;12820;51.580;5.010;2023-07-28T05:17:25;100550.13;;;20.68
24714;BMP280;12820;51.580;5.010;2023-07-28T05:22:44;100560.16;;;20.71
24714;BMP280;12820;51.580;5.010;2023-07-28T05:27:46;100561.72;;;20.74
24714;BMP280;12820;51.580;5.010;2023-07-28T05:32:49;100569.84;;;20.80
24714;BMP280;12820;51.580;5.010;2023-07-28T05:37:56;100568.75;;;20.84
24714;BMP280;12820;51.580;5.010;2023-07-28T05:42:58;100567.66;;;20.88
24714;BMP280;12820;51.580;5.010;2023-07-28T05:48:00;100576.69;;;20.93
24714;BMP280;12820;51.580;5.010;2023-07-28T05:53:02;100585.53;;;21.01
24714;BMP280;12820;51.580;5.010;2023-07-28T05:58:06;100587.59;;;21.10
24714;BMP280;12820;51.580;5.010;2023-07-28T06:03:11;100591.41;;;21.17
24714;BMP280;12820;51.580;5.010;2023-07-28T06:08:35;100593.63;;;21.23
24714;BMP280;12820;51.580;5.010;2023-07-28T06:13:37;100589.94;;;21.27
24714;BMP280;12820;51.580;5.010;2023-07-28T06:18:40;100595.59;;;21.32
24714;BMP280;12820;51.580;5.010;2023-07-28T06:23:47;100588.56;;;21.35
24714;BMP280;12820;51.580;5.010;2023-07-28T06:28:50;100604.44;;;21.40
24714;BMP280;12820;51.580;5.010;2023-07-28T06:33:52;100618.59;;;21.45
24714;BMP280;12820;51.580;5.010;2023-07-28T06:38:55;100618.44;;;21.48
24714;BMP280;12820;51.580;5.010;2023-07-28T06:43:57;100617.22;;;21.53
24714;BMP280;12820;51.580;5.010;2023-07-28T06:49:00;100617.66;;;21.60
24714;BMP280;12820;51.580;5.010;2023-07-28T06:54:02;100628.53;;;21.63
24714;BMP280;12820;51.580;5.010;2023-07-28T06:59:05;100625.69;;;21.68
24714;BMP280;12820;51.580;5.010;2023-07-28T07:04:18;100639.75;;;21.74
24714;BMP280;12820;51.580;5.010;2023-07-28T07:09:20;100638.91;;;21.88
24714;BMP280;12820;51.580;5.010;2023-07-28T07:14:23;100643.91;;;22.03
24714;BMP280;12820;51.580;5.010;2023-07-28T07:19:25;100639.84;;;22.12
24714;BMP280;12820;51.580;5.010;2023-07-28T07:24:27;100644.22;;;22.24
24714;BMP280;12820;51.580;5.010;2023-07-28T07:29:30;100647.72;;;22.35
24714;BMP280;12820;51.580;5.010;2023-07-28T07:34:33;100649.38;;;22.48
24714;BMP280;12820;51.580;5.010;2023-07-28T07:39:35;100647.72;;;22.61
24714;BMP280;12820;51.580;5.010;2023-07-28T07:44:38;100656.25;;;22.74
24714;BMP280;12820;51.580;5.010;2023-07-28T07:49:41;100658.53;;;22.90
24714;BMP280;12820;51.580;5.010;2023-07-28T07:54:43;100665.59;;;23.11
24714;BMP280;12820;51.580;5.010;2023-07-28T07:59:45;100648.72;;;23.33
24714;BMP280;12820;51.580;5.010;2023-07-28T08:04:47;100651.22;;;23.57
24714;BMP280;12820;51.580;5.010;2023-07-28T08:09:50;100662.50;;;23.67
24714;BMP280;12820;51.580;5.010;2023-07-28T08:14:52;100666.28;;;23.74
24714;BMP280;12820;51.580;5.010;2023-07-28T08:19:58;100676.13;;;23.80
24714;BMP280;12820;51.580;5.010;2023-07-28T08:25:00;100674.25;;;23.82
24714;BMP280;12820;51.580;5.010;2023-07-28T08:30:03;100682.47;;;23.86
24714;BMP280;12820;51.580;5.010;2023-07-28T08:35:05;100685.56;;;23.91
24714;BMP280;12820;51.580;5.010;2023-07-28T08:40:08;100684.31;;;23.97
24714;BMP280;12820;51.580;5.010;2023-07-28T08:45:11;100680.50;;;24.02
24714;BMP280;12820;51.580;5.010;2023-07-28T08:50:13;100693.56;;;23.99
24714;BMP280;12820;51.580;5.010;2023-07-28T08:55:16;100693.13;;;24.05
24714;BMP280;12820;51.580;5.010;2023-07-28T09:00:19;100686.97;;;24.07
24714;BMP280;12820;51.580;5.010;2023-07-28T09:05:21;100704.13;;;24.07
24714;BMP280;12820;51.580;5.010;2023-07-28T09:10:40;100691.84;;;24.23
24714;BMP280;12820;51.580;5.010;2023-07-28T09:15:42;100697.56;;;24.26
24714;BMP280;12820;51.580;5.010;2023-07-28T09:20:44;100696.09;;;24.34
24714;BMP280;12820;51.580;5.010;2023-07-28T09:25:47;100692.56;;;24.47
24714;BMP280;12820;51.580;5.010;2023-07-28T09:30:49;100703.28;;;24.64
24714;BMP280;12820;51.580;5.010;2023-07-28T09:35:52;100691.53;;;24.83
24714;BMP280;12820;51.580;5.010;2023-07-28T09:40:57;100693.97;;;25.18
24714;BMP280;12820;51.580;5.010;2023-07-28T09:45:59;100696.94;;;25.35
24714;BMP280;12820;51.580;5.010;2023-07-28T09:51:08;100699.75;;;25.54
24714;BMP280;12820;51.580;5.010;2023-07-28T09:56:14;100707.25;;;25.67
24714;BMP280;12820;51.580;5.010;2023-07-28T10:01:19;100699.25;;;25.81
24714;BMP280;12820;51.580;5.010;2023-07-28T10:06:22;100709.13;;;25.98
24714;BMP280;12820;51.580;5.010;2023-07-28T10:11:25;100708.84;;;26.22
24714;BMP280;12820;51.580;5.010;2023-07-28T10:16:37;100704.09;;;26.37
24714;BMP280;12820;51.580;5.010;2023-07-28T10:21:40;100706.44;;;26.51
24714;BMP280;12820;51.580;5.010;2023-07-28T10:26:45;100700.91;;;26.75
24714;BMP280;12820;51.580;5.010;2023-07-28T10:31:54;100696.84;;;27.33
24714;BMP280;12820;51.580;5.010;2023-07-28T10:36:59;100695.81;;;27.64
24714;BMP280;12820;51.580;5.010;2023-07-28T10:42:08;100696.69;;;27.54
24714;BMP280;12820;51.580;5.010;2023-07-28T10:47:11;100687.84;;;27.57
24714;BMP280;12820;51.580;5.010;2023-07-28T10:52:15;100692.19;;;28.24
24714;BMP280;12820;51.580;5.010;2023-07-28T10:57:18;100682.81;;;28.32
24714;BMP280;12820;51.580;5.010;2023-07-28T11:02:21;100679.31;;;28.04
24714;BMP280;12820;51.580;5.010;2023-07-28T11:07:23;100684.88;;;27.90
24714;BMP280;12820;51.580;5.010;2023-07-28T11:12:26;100681.22;;;27.83
24714;BMP280;12820;51.580;5.010;2023-07-28T11:17:28;100690.56;;;27.84
24714;BMP280;12820;51.580;5.010;2023-07-28T11:22:32;100685.59;;;28.01
24714;BMP280;12820;51.580;5.010;2023-07-28T11:27:34;100684.31;;;28.25
24714;BMP280;12820;51.580;5.010;2023-07-28T11:32:37;100677.00;;;28.76
24714;BMP280;12820;51.580;5.010;2023-07-28T11:37:41;100677.78;;;28.95
24714;BMP280;12820;51.580;5.010;2023-07-28T11:42:45;100672.63;;;28.77
24714;BMP280;12820;51.580;5.010;2023-07-28T11:47:55;100684.44;;;28.61
24714;BMP280;12820;51.580;5.010;2023-07-28T11:52:58;100676.28;;;28.56
24714;BMP280;12820;51.580;5.010;2023-07-28T11:58:01;100684.19;;;28.54
24714;BMP280;12820;51.580;5.010;2023-07-28T12:03:10;100688.13;;;28.31
24714;BMP280;12820;51.580;5.010;2023-07-28T12:08:13;100683.16;;;28.09
24714;BMP280;12820;51.580;5.010;2023-07-28T12:13:15;100693.34;;;27.92
24714;BMP280;12820;51.580;5.010;2023-07-28T12:18:20;100690.41;;;27.77
24714;BMP280;12820;51.580;5.010;2023-07-28T12:23:27;100685.78;;;27.71
24714;BMP280;12820;51.580;5.010;2023-07-28T12:28:32;100691.59;;;27.63
24714;BMP280;12820;51.580;5.010;2023-07-28T12:33:45;100693.28;;;27.54
24714;BMP280;12820;51.580;5.010;2023-07-28T12:38:51;100695.13;;;27.43
24714;BMP280;12820;51.580;5.010;2023-07-28T12:43:55;100709.75;;;27.33
24714;BMP280;12820;51.580;5.010;2023-07-28T12:49:01;100705.63;;;27.21
24714;BMP280;12820;51.580;5.010;2023-07-28T12:54:03;100719.09;;;27.05
24714;BMP280;12820;51.580;5.010;2023-07-28T12:59:06;100713.53;;;26.89
24714;BMP280;12820;51.580;5.010;2023-07-28T13:04:11;100716.41;;;26.75
24714;BMP280;12820;51.580;5.010;2023-07-28T13:09:13;100721.19;;;26.60
24714;BMP280;12820;51.580;5.010;2023-07-28T13:14:18;100720.28;;;26.50
24714;BMP280;12820;51.580;5.010;2023-07-28T13:19:20;100719.19;;;26.53
24714;BMP280;12820;51.580;5.010;2023-07-28T13:24:23;100719.09;;;26.54
24714;BMP280;12820;51.580;5.010;2023-07-28T13:29:25;100719.56;;;26.48
24714;BMP280;12820;51.580;5.010;2023-07-28T13:34:27;100712.28;;;26.42
24714;BMP280;12820;51.580;5.010;2023-07-28T13:39:31;100713.25;;;26.41
24714;BMP280;12820;51.580;5.010;2023-07-28T13:44:33;100719.22;;;26.42
24714;BMP280;12820;51.580;5.010;2023-07-28T13:49:36;100708.56;;;26.36
24714;BMP280;12820;51.580;5.010;2023-07-28T13:54:52;100713.00;;;26.34
24714;BMP280;12820;51.580;5.010;2023-07-28T13:59:58;100704.47;;;26.44
24714;BMP280;12820;51.580;5.010;2023-07-28T14:05:00;100707.00;;;26.55
24714;BMP280;12820;51.580;5.010;2023-07-28T14:10:02;100696.13;;;26.71
24714;BMP280;12820;51.580;5.010;2023-07-28T14:15:08;100695.03;;;26.84
24714;BMP280;12820;51.580;5.010;2023-07-28T14:20:11;100708.63;;;26.86
24714;BMP280;12820;51.580;5.010;2023-07-28T14:25:13;100706.28;;;26.83
24714;BMP280;12820;51.580;5.010;2023-07-28T14:30:15;100717.38;;;26.74
24714;BMP280;12820;51.580;5.010;2023-07-28T14:35:17;100721.09;;;26.71
24714;BMP280;12820;51.580;5.010;2023-07-28T14:40:19;100725.59;;;26.69
24714;BMP280;12820;51.580;5.010;2023-07-28T14:45:22;100724.69;;;26.59
24714;BMP280;12820;51.580;5.010;2023-07-28T14:50:24;100735.47;;;26.42
24714;BMP280;12820;51.580;5.010;2023-07-28T14:55:26;100726.53;;;26.26
24714;BMP280;12820;51.580;5.010;2023-07-28T15:00:29;100721.19;;;26.08
24714;BMP280;12820;51.580;5.010;2023-07-28T15:05:31;100716.75;;;25.88
24714;BMP280;12820;51.580;5.010;2023-07-28T15:10:33;100724.56;;;25.76
24714;BMP280;12820;51.580;5.010;2023-07-28T15:15:35;100725.97;;;25.80
24714;BMP280;12820;51.580;5.010;2023-07-28T15:20:39;100724.22;;;26.13
24714;BMP280;12820;51.580;5.010;2023-07-28T15:25:41;100708.28;;;26.60
24714;BMP280;12820;51.580;5.010;2023-07-28T15:30:48;100708.38;;;26.89
24714;BMP280;12820;51.580;5.010;2023-07-28T15:35:53;100716.03;;;27.00
24714;BMP280;12820;51.580;5.010;2023-07-28T15:40:55;100713.84;;;26.95
24714;BMP280;12820;51.580;5.010;2023-07-28T15:46:00;100704.22;;;26.97
24714;BMP280;12820;51.580;5.010;2023-07-28T15:51:06;100705.88;;;27.18
24714;BMP280;12820;51.580;5.010;2023-07-28T15:56:08;100700.44;;;27.41
24714;BMP280;12820;51.580;5.010;2023-07-28T16:01:11;100700.03;;;27.65
24714;BMP280;12820;51.580;5.010;2023-07-28T16:06:13;100692.06;;;27.78
24714;BMP280;12820;51.580;5.010;2023-07-28T16:11:16;100690.75;;;27.92
24714;BMP280;12820;51.580;5.010;2023-07-28T16:16:18;100674.50;;;28.29
24714;BMP280;12820;51.580;5.010;2023-07-28T16:21:20;100682.16;;;28.58
24714;BMP280;12820;51.580;5.010;2023-07-28T16:26:23;100673.94;;;29.08
24714;BMP280;12820;51.580;5.010;2023-07-28T16:31:25;100674.00;;;29.70
24714;BMP280;12820;51.580;5.010;2023-07-28T16:36:27;100662.84;;;29.96
24714;BMP280;12820;51.580;5.010;2023-07-28T16:41:29;100671.66;;;30.03
24714;BMP280;12820;51.580;5.010;2023-07-28T16:46:31;100664.63;;;30.13
24714;BMP280;12820;51.580;5.010;2023-07-28T16:51:34;100666.25;;;29.97
24714;BMP280;12820;51.580;5.010;2023-07-28T16:56:36;100660.84;;;29.81
24714;BMP280;12820;51.580;5.010;2023-07-28T17:01:41;100652.16;;;29.82
24714;BMP280;12820;51.580;5.010;2023-07-28T17:06:44;100655.28;;;29.76
24714;BMP280;12820;51.580;5.010;2023-07-28T17:11:48;100650.78;;;29.52
24714;BMP280;12820;51.580;5.010;2023-07-28T17:16:50;100640.13;;;29.28
24714;BMP280;12820;51.580;5.010;2023-07-28T17:21:53;100632.25;;;29.11
24714;BMP280;12820;51.580;5.010;2023-07-28T17:26:55;100631.16;;;29.05
24714;BMP280;12820;51.580;5.010;2023-07-28T17:31:58;100633.09;;;28.93
24714;BMP280;12820;51.580;5.010;2023-07-28T17:37:00;100642.38;;;28.87
24714;BMP280;12820;51.580;5.010;2023-07-28T17:42:03;100630.41;;;28.76
24714;BMP280;12820;51.580;5.010;2023-07-28T17:47:05;100624.81;;;28.62
24714;BMP280;12820;51.580;5.010;2023-07-28T17:52:07;100626.31;;;28.46
24714;BMP280;12820;51.580;5.010;2023-07-28T17:57:09;100633.56;;;28.24
24714;BMP280;12820;51.580;5.010;2023-07-28T18:02:11;100626.28;;;28.00
24714;BMP280;12820;51.580;5.010;2023-07-28T18:07:13;100621.38;;;27.79
24714;BMP280;12820;51.580;5.010;2023-07-28T18:12:16;100627.53;;;27.58
24714;BMP280;12820;51.580;5.010;2023-07-28T18:17:20;100632.06;;;27.36
24714;BMP280;12820;51.580;5.010;2023-07-28T18:22:23;100623.13;;;27.10
24714;BMP280;12820;51.580;5.010;2023-07-28T18:27:25;100638.97;;;26.86
24714;BMP280;12820;51.580;5.010;2023-07-28T18:32:27;100632.44;;;26.62
24714;BMP280;12820;51.580;5.010;2023-07-28T18:37:30;100636.84;;;26.40
24714;BMP280;12820;51.580;5.010;2023-07-28T18:42:32;100644.66;;;26.19
24714;BMP280;12820;51.580;5.010;2023-07-28T18:47:34;100645.56;;;25.98
24714;BMP280;12820;51.580;5.010;2023-07-28T18:52:37;100654.81;;;25.79
24714;BMP280;12820;51.580;5.010;2023-07-28T18:57:39;100664.06;;;25.60
24714;BMP280;12820;51.580;5.010;2023-07-28T19:02:41;100660.09;;;25.46
24714;BMP280;12820;51.580;5.010;2023-07-28T19:07:44;100662.91;;;25.32
24714;BMP280;12820;51.580;5.010;2023-07-28T19:12:47;100677.72;;;25.18
24714;BMP280;12820;51.580;5.010;2023-07-28T19:17:49;100677.69;;;25.07
24714;BMP280;12820;51.580;5.010;2023-07-28T19:22:51;100672.31;;;24.99
24714;BMP280;12820;51.580;5.010;2023-07-28T19:27:55;100679.56;;;24.94
24714;BMP280;12820;51.580;5.010;2023-07-28T19:32:57;100684.31;;;24.88
24714;BMP280;12820;51.580;5.010;2023-07-28T19:38:00;100689.31;;;24.79
24714;BMP280;12820;51.580;5.010;2023-07-28T19:43:02;100691.94;;;24.67
24714;BMP280;12820;51.580;5.010;2023-07-28T19:48:04;100706.50;;;24.56
24714;BMP280;12820;51.580;5.010;2023-07-28T19:53:07;100701.53;;;24.42
24714;BMP280;12820;51.580;5.010;2023-07-28T19:58:09;100706.84;;;24.28
24714;BMP280;12820;51.580;5.010;2023-07-28T20:03:12;100703.69;;;24.13
24714;BMP280;12820;51.580;5.010;2023-07-28T20:08:14;100710.72;;;23.99
24714;BMP280;12820;51.580;5.010;2023-07-28T20:13:17;100708.25;;;23.85
24714;BMP280;12820;51.580;5.010;2023-07-28T20:18:22;100707.56;;;23.71
24714;BMP280;12820;51.580;5.010;2023-07-28T20:23:24;100722.16;;;23.58
24714;BMP280;12820;51.580;5.010;2023-07-28T20:28:26;100725.56;;;23.47
24714;BMP280;12820;51.580;5.010;2023-07-28T20:33:28;100708.41;;;23.35
24714;BMP280;12820;51.580;5.010;2023-07-28T20:38:31;100716.81;;;23.25
24714;BMP280;12820;51.580;5.010;2023-07-28T20:43:33;100709.84;;;23.15
24714;BMP280;12820;51.580;5.010;2023-07-28T20:48:35;100712.28;;;23.04
24714;BMP280;12820;51.580;5.010;2023-07-28T20:53:38;100702.72;;;22.94
24714;BMP280;12820;51.580;5.010;2023-07-28T20:58:40;100718.59;;;22.86
24714;BMP280;12820;51.580;5.010;2023-07-28T21:03:43;100718.34;;;22.77
24714;BMP280;12820;51.580;5.010;2023-07-28T21:08:46;100719.78;;;22.69
24714;BMP280;12820;51.580;5.010;2023-07-28T21:13:48;100717.72;;;22.62
24714;BMP280;12820;51.580;5.010;2023-07-28T21:18:51;100715.63;;;22.54
24714;BMP280;12820;51.580;5.010;2023-07-28T21:23:53;100722.97;;;22.46
24714;BMP280;12820;51.580;5.010;2023-07-28T21:28:56;100718.44;;;22.38
24714;BMP280;12820;51.580;5.010;2023-07-28T21:33:58;100711.13;;;22.32
24714;BMP280;12820;51.580;5.010;2023-07-28T21:39:00;100716.63;;;22.26
24714;BMP280;12820;51.580;5.010;2023-07-28T21:44:03;100712.81;;;22.19
24714;BMP280;12820;51.580;5.010;2023-07-28T21:49:05;100706.41;;;22.12
24714;BMP280;12820;51.580;5.010;2023-07-28T21:54:07;100704.97;;;22.08
24714;BMP280;12820;51.580;5.010;2023-07-28T21:59:10;100705.34;;;22.03
24714;BMP280;12820;51.580;5.010;2023-07-28T22:04:12;100707.38;;;21.98
24714;BMP280;12820;51.580;5.010;2023-07-28T22:09:14;100712.84;;;21.92
24714;BMP280;12820;51.580;5.010;2023-07-28T22:14:17;100711.59;;;21.85
24714;BMP280;12820;51.580;5.010;2023-07-28T22:19:19;100725.63;;;21.78
24714;BMP280;12820;51.580;5.010;2023-07-28T22:24:22;100710.66;;;21.72
24714;BMP280;12820;51.580;5.010;2023-07-28T22:29:24;100711.88;;;21.67
24714;BMP280;12820;51.580;5.010;2023-07-28T22:34:26;100709.66;;;21.61
24714;BMP280;12820;51.580;5.010;2023-07-28T22:39:28;100706.56;;;21.56
24714;BMP280;12820;51.580;5.010;2023-07-28T22:44:30;100694.13;;;21.51
24714;BMP280;12820;51.580;5.010;2023-07-28T22:49:33;100709.00;;;21.44
24714;BMP280;12820;51.580;5.010;2023-07-28T22:54:35;100708.56;;;21.38
24714;BMP280;12820;51.580;5.010;2023-07-28T22:59:41;100702.91;;;21.33
24714;BMP280;12820;51.580;5.010;2023-07-28T23:04:43;100707.53;;;21.27
24714;BMP280;12820;51.580;5.010;2023-07-28T23:09:46;100710.38;;;21.22
24714;BMP280;12820;51.580;5.010;2023-07-28T23:14:48;100697.13;;;21.16
24714;BMP280;12820;51.580;5.010;2023-07-28T23:19:50;100686.34;;;21.11
24714;BMP280;12820;51.580;5.010;2023-07-28T23:24:52;100671.34;;;21.05
24714;BMP280;12820;51.580;5.010;2023-07-28T23:29:55;100680.09;;;21.01
24714;BMP280;12820;51.580;5.010;2023-07-28T23:34:57;100678.75;;;20.96
24714;BMP280;12820;51.580;5.010;2023-07-28T23:39:59;100695.25;;;20.91
24714;BMP280;12820;51.580;5.010;2023-07-28T23:45:02;100703.31;;;20.83
24714;BMP280;12820;51.580;5.010;2023-07-28T23:50:04;100705.31;;;20.79
24714;BMP280;12820;51.580;5.010;2023-07-28T23:55:06;100698.75;;;20.75
